sensor_id;sensor_type;location;lat;lon;timestamp;pressure;altitude;pressure_sealevel;temperature;humidity
67842;BME280;54642;59.126;37.876;2023-05-20T00:01:08;101286.97;;;11.23;63.09
67842;BME280;54642;59.126;37.876;2023-05-20T00:03:34;101311.38;;;11.36;63.31
67842;BME280;54642;59.126;37.876;2023-05-20T00:06:00;101315.69;;;11.37;63.19
67842;BME280;54642;59.126;37.876;2023-05-20T00:08:26;101305.22;;;11.29;63.28
67842;BME280;54642;59.126;37.876;2023-05-20T00:10:52;101284.31;;;11.17;63.27
67842;BME280;54642;59.126;37.876;2023-05-20T00:13:18;101308.75;;;11.34;63.24
67842;BME280;54642;59.126;37.876;2023-05-20T00:15:44;101305.22;;;11.29;63.24
67842;BME280;54642;59.126;37.876;2023-05-20T00:18:10;101277.34;;;11.11;63.43
67842;BME280;54642;59.126;37.876;2023-05-20T00:20:35;101299.19;;;11.29;63.50
67842;BME280;54642;59.126;37.876;2023-05-20T00:23:01;101306.09;;;11.30;63.61
67842;BME280;54642;59.126;37.876;2023-05-20T00:25:27;101294.00;;;11.29;63.44
67842;BME280;54642;59.126;37.876;2023-05-20T00:27:55;101304.38;;;11.30;63.13
67842;BME280;54642;59.126;37.876;2023-05-20T00:30:21;101288.72;;;11.22;63.31
67842;BME280;54642;59.126;37.876;2023-05-20T00:32:47;101306.88;;;11.22;63.50
67842;BME280;54642;59.126;37.876;2023-05-20T00:35:12;101275.56;;;11.07;63.43
67842;BME280;54642;59.126;37.876;2023-05-20T00:37:38;101287.75;;;11.16;63.47
67842;BME280;54642;59.126;37.876;2023-05-20T00:40:04;101293.78;;;11.13;63.69
67842;BME280;54642;59.126;37.876;2023-05-20T00:42:31;101308.63;;;11.23;63.56
67842;BME280;54642;59.126;37.876;2023-05-20T00:44:56;101274.63;;;11.03;63.64
67842;BME280;54642;59.126;37.876;2023-05-20T00:47:26;101319.88;;;11.24;63.86
67842;BME280;54642;59.126;37.876;2023-05-20T00:49:53;101309.41;;;11.19;63.81
67842;BME280;54642;59.126;37.876;2023-05-20T00:52:19;101308.59;;;11.20;64.01
67842;BME280;54642;59.126;37.876;2023-05-20T00:54:46;101318.13;;;11.23;63.81
67842;BME280;54642;59.126;37.876;2023-05-20T00:57:12;101310.38;;;11.26;63.86
67842;BME280;54642;59.126;37.876;2023-05-20T00:59:38;101300.75;;;11.17;63.48
67842;BME280;54642;59.126;37.876;2023-05-20T01:02:05;101316.41;;;11.23;63.87
67842;BME280;54642;59.126;37.876;2023-05-20T01:04:31;101266.78;;;10.97;63.65
67842;BME280;54642;59.126;37.876;2023-05-20T01:06:59;101298.94;;;11.10;63.91
67842;BME280;54642;59.126;37.876;2023-05-20T01:09:27;101320.81;;;11.29;63.58
67842;BME280;54642;59.126;37.876;2023-05-20T01:12:00;101294.63;;;11.11;63.61
67842;BME280;54642;59.126;37.876;2023-05-20T01:14:31;101300.75;;;11.17;63.94
67842;BME280;54642;59.126;37.876;2023-05-20T01:17:00;101326.03;;;11.32;63.30
67842;BME280;54642;59.126;37.876;2023-05-20T01:19:53;101327.69;;;11.27;63.46
67842;BME280;54642;59.126;37.876;2023-05-20T01:22:27;101321.56;;;11.22;63.73
67842;BME280;54642;59.126;37.876;2023-05-20T01:24:53;101321.56;;;11.20;63.79
67842;BME280;54642;59.126;37.876;2023-05-20T01:27:20;101306.72;;;11.12;63.84
67842;BME280;54642;59.126;37.876;2023-05-20T01:29:48;101328.41;;;11.15;64.03
67842;BME280;54642;59.126;37.876;2023-05-20T01:32:27;101332.72;;;11.15;64.08
67842;BME280;54642;59.126;37.876;2023-05-20T01:34:57;101338.88;;;11.23;64.10
67842;BME280;54642;59.126;37.876;2023-05-20T01:37:24;101334.56;;;11.22;63.94
67842;BME280;54642;59.126;37.876;2023-05-20T01:39:52;101318.91;;;11.14;64.09
67842;BME280;54642;59.126;37.876;2023-05-20T01:42:19;101342.38;;;11.26;64.00
67842;BME280;54642;59.126;37.876;2023-05-20T01:44:47;101348.53;;;11.33;63.98
67842;BME280;54642;59.126;37.876;2023-05-20T01:47:12;101347.63;;;11.31;63.97
67842;BME280;54642;59.126;37.876;2023-05-20T01:49:40;101317.94;;;11.07;64.08
67842;BME280;54642;59.126;37.876;2023-05-20T01:52:06;101334.50;;;11.19;64.32
67842;BME280;54642;59.126;37.876;2023-05-20T01:54:32;101331.03;;;11.17;64.08
67842;BME280;54642;59.126;37.876;2023-05-20T01:56:58;101333.59;;;11.15;64.09
67842;BME280;54642;59.126;37.876;2023-05-20T01:59:24;101332.72;;;11.15;64.39
67842;BME280;54642;59.126;37.876;2023-05-20T02:01:50;101337.06;;;11.16;64.51
67842;BME280;54642;59.126;37.876;2023-05-20T02:04:16;101348.38;;;11.21;64.65
67842;BME280;54642;59.126;37.876;2023-05-20T02:06:44;101336.22;;;11.18;64.54
67842;BME280;54642;59.126;37.876;2023-05-20T02:09:10;101337.94;;;11.16;64.45
67842;BME280;54642;59.126;37.876;2023-05-20T02:11:36;101341.34;;;11.14;64.79
67842;BME280;54642;59.126;37.876;2023-05-20T02:14:01;101316.13;;;11.03;64.75
67842;BME280;54642;59.126;37.876;2023-05-20T02:16:27;101334.44;;;11.13;64.60
67842;BME280;54642;59.126;37.876;2023-05-20T02:18:53;101317.78;;;10.97;64.74
67842;BME280;54642;59.126;37.876;2023-05-20T02:21:19;101327.38;;;11.02;64.93
67842;BME280;54642;59.126;37.876;2023-05-20T02:23:45;101348.34;;;11.18;64.87
67842;BME280;54642;59.126;37.876;2023-05-20T02:26:11;101343.94;;;11.14;64.80
67842;BME280;54642;59.126;37.876;2023-05-20T02:28:37;101338.69;;;11.07;65.04
67842;BME280;54642;59.126;37.876;2023-05-20T02:31:06;101322.13;;;10.99;64.93
67842;BME280;54642;59.126;37.876;2023-05-20T02:33:31;101343.94;;;11.11;64.92
67842;BME280;54642;59.126;37.876;2023-05-20T02:35:57;101346.53;;;11.14;64.93
67842;BME280;54642;59.126;37.876;2023-05-20T02:38:23;101356.06;;;11.13;65.05
67842;BME280;54642;59.126;37.876;2023-05-20T02:40:49;101338.72;;;11.09;65.19
67842;BME280;54642;59.126;37.876;2023-05-20T02:43:15;101337.78;;;11.04;64.98
67842;BME280;54642;59.126;37.876;2023-05-20T02:45:41;101359.59;;;11.18;65.21
67842;BME280;54642;59.126;37.876;2023-05-20T02:48:06;101366.53;;;11.21;65.25
67842;BME280;54642;59.126;37.876;2023-05-20T02:50:32;101355.22;;;11.14;65.19
67842;BME280;54642;59.126;37.876;2023-05-20T02:52:58;101344.59;;;10.97;65.32
67842;BME280;54642;59.126;37.876;2023-05-20T02:55:24;101347.28;;;11.05;65.25
67842;BME280;54642;59.126;37.876;2023-05-20T02:57:50;101330.84;;;11.03;65.46
67842;BME280;54642;59.126;37.876;2023-05-20T03:00:16;101360.41;;;11.14;65.42
67842;BME280;54642;59.126;37.876;2023-05-20T03:02:43;101328.16;;;10.97;65.51
67842;BME280;54642;59.126;37.876;2023-05-20T03:05:09;101371.66;;;11.15;65.34
67842;BME280;54642;59.126;37.876;2023-05-20T03:07:35;101348.13;;;11.02;65.59
67842;BME280;54642;59.126;37.876;2023-05-20T03:10:01;101364.81;;;11.21;65.51
67842;BME280;54642;59.126;37.876;2023-05-20T03:12:29;101324.69;;;10.95;65.44
67842;BME280;54642;59.126;37.876;2023-05-20T03:14:55;101343.84;;;11.06;65.62
67842;BME280;54642;59.126;37.876;2023-05-20T03:17:23;101347.44;;;11.16;65.48
67842;BME280;54642;59.126;37.876;2023-05-20T03:19:49;101343.09;;;11.15;65.46
67842;BME280;54642;59.126;37.876;2023-05-20T03:22:15;101346.59;;;11.17;65.65
67842;BME280;54642;59.126;37.876;2023-05-20T03:24:41;101338.72;;;11.12;65.67
67842;BME280;54642;59.126;37.876;2023-05-20T03:27:11;101365.63;;;11.19;65.59
67842;BME280;54642;59.126;37.876;2023-05-20T03:29:37;101371.00;;;11.31;65.79
67842;BME280;54642;59.126;37.876;2023-05-20T03:32:03;101356.91;;;11.14;65.98
67842;BME280;54642;59.126;37.876;2023-05-20T03:34:29;101375.19;;;11.23;65.89
67842;BME280;54642;59.126;37.876;2023-05-20T03:36:55;101359.56;;;11.17;65.79
67842;BME280;54642;59.126;37.876;2023-05-20T03:39:22;101370.94;;;11.25;65.77
67842;BME280;54642;59.126;37.876;2023-05-20T03:41:47;101350.00;;;11.13;65.81
67842;BME280;54642;59.126;37.876;2023-05-20T03:44:13;101369.97;;;11.18;65.93
67842;BME280;54642;59.126;37.876;2023-05-20T03:46:39;101335.28;;;11.12;66.11
67842;BME280;54642;59.126;37.876;2023-05-20T03:49:06;101372.75;;;11.32;65.97
67842;BME280;54642;59.126;37.876;2023-05-20T03:51:32;101339.66;;;11.16;65.86
67842;BME280;54642;59.126;37.876;2023-05-20T03:54:04;101340.47;;;11.12;65.62
67842;BME280;54642;59.126;37.876;2023-05-20T03:56:30;101363.16;;;11.28;65.70
67842;BME280;54642;59.126;37.876;2023-05-20T03:58:56;101347.56;;;11.23;65.51
67842;BME280;54642;59.126;37.876;2023-05-20T04:01:22;101335.16;;;11.02;65.88
67842;BME280;54642;59.126;37.876;2023-05-20T04:03:50;101358.84;;;11.27;65.79
67842;BME280;54642;59.126;37.876;2023-05-20T04:06:16;101356.22;;;11.25;65.75
67842;BME280;54642;59.126;37.876;2023-05-20T04:08:42;101355.34;;;11.25;65.74
67842;BME280;54642;59.126;37.876;2023-05-20T04:11:08;101353.66;;;11.27;65.81
67842;BME280;54642;59.126;37.876;2023-05-20T04:13:34;101350.13;;;11.22;65.65
67842;BME280;54642;59.126;37.876;2023-05-20T04:16:00;101384.84;;;11.33;65.92
67842;BME280;54642;59.126;37.876;2023-05-20T04:18:26;101388.38;;;11.38;65.85
67842;BME280;54642;59.126;37.876;2023-05-20T04:20:56;101354.50;;;11.26;65.66
67842;BME280;54642;59.126;37.876;2023-05-20T04:23:22;101371.06;;;11.37;65.66
67842;BME280;54642;59.126;37.876;2023-05-20T04:25:49;101357.16;;;11.31;65.35
67842;BME280;54642;59.126;37.876;2023-05-20T04:28:14;101369.28;;;11.33;65.82
67842;BME280;54642;59.126;37.876;2023-05-20T04:30:41;101379.75;;;11.41;65.55
67842;BME280;54642;59.126;37.876;2023-05-20T04:33:11;101367.63;;;11.38;65.57
67842;BME280;54642;59.126;37.876;2023-05-20T04:35:36;101391.06;;;11.46;65.41
67842;BME280;54642;59.126;37.876;2023-05-20T04:38:07;101375.50;;;11.46;65.48
67842;BME280;54642;59.126;37.876;2023-05-20T04:40:33;101378.16;;;11.51;65.15
67842;BME280;54642;59.126;37.876;2023-05-20T04:43:00;101356.50;;;11.47;64.97
67842;BME280;54642;59.126;37.876;2023-05-20T04:45:25;101376.56;;;11.62;64.91
67842;BME280;54642;59.126;37.876;2023-05-20T04:47:51;101380.03;;;11.64;64.82
67842;BME280;54642;59.126;37.876;2023-05-20T04:50:18;101382.81;;;11.78;64.63
67842;BME280;54642;59.126;37.876;2023-05-20T04:52:44;101355.22;;;11.89;64.38
67842;BME280;54642;59.126;37.876;2023-05-20T04:55:13;101366.78;;;12.17;64.10
67842;BME280;54642;59.126;37.876;2023-05-20T04:57:41;101348.69;;;12.25;63.97
67842;BME280;54642;59.126;37.876;2023-05-20T05:00:09;101381.06;;;12.63;63.29
67842;BME280;54642;59.126;37.876;2023-05-20T05:02:37;101336.81;;;12.58;63.22
67842;BME280;54642;59.126;37.876;2023-05-20T05:05:04;101350.81;;;12.78;62.94
67842;BME280;54642;59.126;37.876;2023-05-20T05:07:30;101356.09;;;12.89;62.69
67842;BME280;54642;59.126;37.876;2023-05-20T05:09:56;101346.50;;;12.82;62.40
67842;BME280;54642;59.126;37.876;2023-05-20T05:12:22;101379.59;;;13.03;62.38
67842;BME280;54642;59.126;37.876;2023-05-20T05:14:48;101383.09;;;13.07;62.15
67842;BME280;54642;59.126;37.876;2023-05-20T05:17:14;101367.47;;;13.08;62.10
67842;BME280;54642;59.126;37.876;2023-05-20T05:19:40;101348.34;;;12.99;62.11
67842;BME280;54642;59.126;37.876;2023-05-20T05:22:06;101339.66;;;12.96;62.07
67842;BME280;54642;59.126;37.876;2023-05-20T05:24:33;101351.00;;;13.06;61.55
67842;BME280;54642;59.126;37.876;2023-05-20T05:26:59;101349.28;;;13.16;61.92
67842;BME280;54642;59.126;37.876;2023-05-20T05:29:25;101361.56;;;13.31;61.76
67842;BME280;54642;59.126;37.876;2023-05-20T05:31:51;101369.44;;;13.49;61.64
67842;BME280;54642;59.126;37.876;2023-05-20T05:34:17;101361.66;;;13.57;61.53
67842;BME280;54642;59.126;37.876;2023-05-20T05:36:43;101357.34;;;13.56;61.27
67842;BME280;54642;59.126;37.876;2023-05-20T05:39:09;101365.16;;;13.61;61.20
67842;BME280;54642;59.126;37.876;2023-05-20T05:41:35;101330.38;;;13.42;61.10
67842;BME280;54642;59.126;37.876;2023-05-20T05:44:01;101353.03;;;13.75;61.06
67842;BME280;54642;59.126;37.876;2023-05-20T05:46:28;101362.63;;;13.87;60.59
67842;BME280;54642;59.126;37.876;2023-05-20T05:48:54;101359.16;;;13.91;60.51
67842;BME280;54642;59.126;37.876;2023-05-20T05:51:19;101349.63;;;14.08;60.27
67842;BME280;54642;59.126;37.876;2023-05-20T05:53:47;101357.47;;;14.27;60.00
67842;BME280;54642;59.126;37.876;2023-05-20T05:56:13;101358.34;;;14.43;59.49
67842;BME280;54642;59.126;37.876;2023-05-20T05:58:39;101338.34;;;14.46;59.20
67842;BME280;54642;59.126;37.876;2023-05-20T06:01:06;101338.34;;;14.49;58.68
67842;BME280;54642;59.126;37.876;2023-05-20T06:03:32;101333.13;;;14.53;58.69
67842;BME280;54642;59.126;37.876;2023-05-20T06:05:58;101316.63;;;14.38;58.50
67842;BME280;54642;59.126;37.876;2023-05-20T06:08:24;101334.00;;;14.59;58.38
67842;BME280;54642;59.126;37.876;2023-05-20T06:10:50;101334.88;;;14.66;57.96
67842;BME280;54642;59.126;37.876;2023-05-20T06:13:16;101329.66;;;14.75;57.92
67842;BME280;54642;59.126;37.876;2023-05-20T06:15:42;101344.41;;;14.92;56.97
67842;BME280;54642;59.126;37.876;2023-05-20T06:18:11;101353.13;;;14.95;57.03
67842;BME280;54642;59.126;37.876;2023-05-20T06:20:37;101350.47;;;15.01;57.42
67842;BME280;54642;59.126;37.876;2023-05-20T06:23:03;101373.06;;;15.16;57.57
67842;BME280;54642;59.126;37.876;2023-05-20T06:25:37;101365.19;;;15.27;57.06
67842;BME280;54642;59.126;37.876;2023-05-20T06:28:03;101313.94;;;14.98;56.63
67842;BME280;54642;59.126;37.876;2023-05-20T06:30:29;101363.44;;;15.31;56.06
67842;BME280;54642;59.126;37.876;2023-05-20T06:32:55;101369.50;;;15.40;55.96
67842;BME280;54642;59.126;37.876;2023-05-20T06:35:21;101359.00;;;15.45;55.09
67842;BME280;54642;59.126;37.876;2023-05-20T06:37:47;101362.53;;;15.38;54.93
67842;BME280;54642;59.126;37.876;2023-05-20T06:40:13;101369.50;;;15.43;55.32
67842;BME280;54642;59.126;37.876;2023-05-20T06:42:39;101351.19;;;15.48;55.00
67842;BME280;54642;59.126;37.876;2023-05-20T06:45:06;101350.31;;;15.48;54.60
67842;BME280;54642;59.126;37.876;2023-05-20T06:47:35;101376.34;;;15.68;54.49
67842;BME280;54642;59.126;37.876;2023-05-20T06:50:02;101374.69;;;15.50;54.98
67842;BME280;54642;59.126;37.876;2023-05-20T06:52:29;101336.53;;;15.10;55.40
67842;BME280;54642;59.126;37.876;2023-05-20T06:54:55;101386.13;;;15.09;55.75
67842;BME280;54642;59.126;37.876;2023-05-20T06:57:22;101383.56;;;14.92;56.22
67842;BME280;54642;59.126;37.876;2023-05-20T06:59:48;101344.44;;;14.76;55.98
67842;BME280;54642;59.126;37.876;2023-05-20T07:02:14;101362.69;;;14.92;56.02
67842;BME280;54642;59.126;37.876;2023-05-20T07:04:41;101365.28;;;14.85;55.52
67842;BME280;54642;59.126;37.876;2023-05-20T07:07:07;101385.28;;;15.00;55.67
67842;BME280;54642;59.126;37.876;2023-05-20T07:09:33;101364.38;;;15.02;55.55
67842;BME280;54642;59.126;37.876;2023-05-20T07:11:59;101360.91;;;15.00;55.15
67842;BME280;54642;59.126;37.876;2023-05-20T07:14:25;101367.88;;;15.02;55.04
67842;BME280;54642;59.126;37.876;2023-05-20T07:16:51;101359.19;;;14.96;55.07
67842;BME280;54642;59.126;37.876;2023-05-20T07:19:17;101380.88;;;15.18;55.41
67842;BME280;54642;59.126;37.876;2023-05-20T07:21:43;101387.84;;;15.16;55.51
67842;BME280;54642;59.126;37.876;2023-05-20T07:24:21;101384.38;;;15.15;55.90
67842;BME280;54642;59.126;37.876;2023-05-20T07:26:46;101394.00;;;15.01;55.60
67842;BME280;54642;59.126;37.876;2023-05-20T07:29:13;101370.50;;;14.98;55.17
67842;BME280;54642;59.126;37.876;2023-05-20T07:31:39;101386.13;;;15.05;55.06
67842;BME280;54642;59.126;37.876;2023-05-20T07:34:05;101389.63;;;15.00;54.73
67842;BME280;54642;59.126;37.876;2023-05-20T07:36:31;101391.34;;;15.04;54.95
67842;BME280;54642;59.126;37.876;2023-05-20T07:39:01;101393.09;;;15.08;55.25
67842;BME280;54642;59.126;37.876;2023-05-20T07:41:28;101356.59;;;14.99;55.08
67842;BME280;54642;59.126;37.876;2023-05-20T07:43:54;101374.81;;;15.13;54.94
67842;BME280;54642;59.126;37.876;2023-05-20T07:46:19;101358.31;;;15.01;54.78
67842;BME280;54642;59.126;37.876;2023-05-20T07:48:46;101390.47;;;15.11;54.79
67842;BME280;54642;59.126;37.876;2023-05-20T07:51:11;101383.53;;;15.07;54.56
67842;BME280;54642;59.126;37.876;2023-05-20T07:53:38;101387.00;;;15.09;54.51
67842;BME280;54642;59.126;37.876;2023-05-20T07:56:04;101387.88;;;15.03;53.87
67842;BME280;54642;59.126;37.876;2023-05-20T07:58:31;101387.88;;;15.02;54.31
67842;BME280;54642;59.126;37.876;2023-05-20T08:00:57;101372.25;;;14.96;54.19
67842;BME280;54642;59.126;37.876;2023-05-20T08:03:24;101347.84;;;15.11;54.24
67842;BME280;54642;59.126;37.876;2023-05-20T08:05:59;101350.38;;;15.34;54.12
67842;BME280;54642;59.126;37.876;2023-05-20T08:08:26;101359.06;;;15.40;53.94
67842;BME280;54642;59.126;37.876;2023-05-20T08:10:59;101386.84;;;15.58;53.37
67842;BME280;54642;59.126;37.876;2023-05-20T08:13:27;101375.53;;;15.53;53.48
67842;BME280;54642;59.126;37.876;2023-05-20T08:15:53;101389.47;;;15.57;52.96
67842;BME280;54642;59.126;37.876;2023-05-20T08:18:19;101383.41;;;15.46;52.90
67842;BME280;54642;59.126;37.876;2023-05-20T08:20:46;101380.84;;;15.33;53.03
67842;BME280;54642;59.126;37.876;2023-05-20T08:23:12;101370.44;;;15.19;53.18
67842;BME280;54642;59.126;37.876;2023-05-20T08:25:38;101389.56;;;15.24;53.07
67842;BME280;54642;59.126;37.876;2023-05-20T08:28:04;101387.81;;;15.25;53.02
67842;BME280;54642;59.126;37.876;2023-05-20T08:30:33;101366.94;;;15.23;52.98
67842;BME280;54642;59.126;37.876;2023-05-20T08:33:00;101357.38;;;15.24;52.84
67842;BME280;54642;59.126;37.876;2023-05-20T08:35:27;101369.34;;;15.82;52.24
67842;BME280;54642;59.126;37.876;2023-05-20T08:37:53;101365.84;;;15.83;51.75
67842;BME280;54642;59.126;37.876;2023-05-20T08:40:20;101353.66;;;15.82;51.71
67842;BME280;54642;59.126;37.876;2023-05-20T08:42:48;101362.28;;;15.96;52.27
67842;BME280;54642;59.126;37.876;2023-05-20T08:45:17;101375.34;;;15.99;51.87
67842;BME280;54642;59.126;37.876;2023-05-20T08:47:43;101365.75;;;15.97;52.46
67842;BME280;54642;59.126;37.876;2023-05-20T08:50:11;101364.72;;;16.24;51.46
67842;BME280;54642;59.126;37.876;2023-05-20T08:52:49;101359.41;;;16.33;51.62
67842;BME280;54642;59.126;37.876;2023-05-20T08:55:54;101345.41;;;16.41;51.55
67842;BME280;54642;59.126;37.876;2023-05-20T08:58:23;101358.59;;;16.22;51.27
67842;BME280;54642;59.126;37.876;2023-05-20T09:00:50;101322.91;;;16.18;50.61
67842;BME280;54642;59.126;37.876;2023-05-20T09:03:17;101350.44;;;16.62;50.04
67842;BME280;54642;59.126;37.876;2023-05-20T09:05:46;101346.72;;;16.88;50.31
67842;BME280;54642;59.126;37.876;2023-05-20T09:08:12;101337.88;;;17.00;49.91
67842;BME280;54642;59.126;37.876;2023-05-20T09:10:38;101342.03;;;17.18;49.52
67842;BME280;54642;59.126;37.876;2023-05-20T09:13:06;101354.16;;;17.26;49.49
67842;BME280;54642;59.126;37.876;2023-05-20T09:15:33;101343.50;;;17.40;49.41
67842;BME280;54642;59.126;37.876;2023-05-20T09:18:00;101345.06;;;17.53;49.08
67842;BME280;54642;59.126;37.876;2023-05-20T09:20:27;101332.91;;;17.49;48.55
67842;BME280;54642;59.126;37.876;2023-05-20T09:23:00;101348.91;;;17.28;47.98
67842;BME280;54642;59.126;37.876;2023-05-20T09:25:26;101336.84;;;17.13;48.41
67842;BME280;54642;59.126;37.876;2023-05-20T09:27:53;101337.59;;;17.23;48.49
67842;BME280;54642;59.126;37.876;2023-05-20T09:30:20;101344.28;;;17.47;48.73
67842;BME280;54642;59.126;37.876;2023-05-20T09:32:56;101341.59;;;17.55;48.69
67842;BME280;54642;59.126;37.876;2023-05-20T09:35:23;101331.19;;;17.45;47.74
67842;BME280;54642;59.126;37.876;2023-05-20T09:37:55;101330.44;;;17.37;47.40
67842;BME280;54642;59.126;37.876;2023-05-20T09:40:26;101324.38;;;17.35;47.31
67842;BME280;54642;59.126;37.876;2023-05-20T09:45:23;101334.84;;;17.33;48.99
67842;BME280;54642;59.126;37.876;2023-05-20T09:47:53;101329.34;;;17.53;48.86
67842;BME280;54642;59.126;37.876;2023-05-20T09:50:20;101320.97;;;17.27;48.37
67842;BME280;54642;59.126;37.876;2023-05-20T09:52:52;101334.22;;;17.11;49.49
67842;BME280;54642;59.126;37.876;2023-05-20T09:55:23;101338.78;;;16.95;49.52
67842;BME280;54642;59.126;37.876;2023-05-20T09:57:49;101340.69;;;16.80;50.15
67842;BME280;54642;59.126;37.876;2023-05-20T10:00:16;101338.91;;;16.82;50.36
67842;BME280;54642;59.126;37.876;2023-05-20T10:02:47;101345.59;;;17.10;49.34
67842;BME280;54642;59.126;37.876;2023-05-20T10:05:19;101337.84;;;17.03;49.02
67842;BME280;54642;59.126;37.876;2023-05-20T10:08:08;101335.00;;;17.21;48.79
67842;BME280;54642;59.126;37.876;2023-05-20T10:16:10;101345.66;;;17.04;48.25
67842;BME280;54642;59.126;37.876;2023-05-20T10:21:23;101325.19;;;16.58;48.89
67842;BME280;54642;59.126;37.876;2023-05-20T10:23:50;101332.97;;;16.63;48.47
67842;BME280;54642;59.126;37.876;2023-05-20T10:26:16;101301.75;;;16.44;48.77
67842;BME280;54642;59.126;37.876;2023-05-20T10:28:42;101332.84;;;16.78;48.72
67842;BME280;54642;59.126;37.876;2023-05-20T10:31:20;101336.31;;;16.78;48.67
67842;BME280;54642;59.126;37.876;2023-05-20T10:33:47;101338.00;;;16.86;48.56
67842;BME280;54642;59.126;37.876;2023-05-20T10:36:25;101326.31;;;17.18;48.92
67842;BME280;54642;59.126;37.876;2023-05-20T10:38:53;101315.59;;;17.36;48.48
67842;BME280;54642;59.126;37.876;2023-05-20T10:41:27;101319.72;;;17.54;48.65
67842;BME280;54642;59.126;37.876;2023-05-20T10:44:03;101332.28;;;17.29;48.36
67842;BME280;54642;59.126;37.876;2023-05-20T10:46:30;101308.13;;;17.04;48.32
67842;BME280;54642;59.126;37.876;2023-05-20T10:48:57;101330.00;;;17.01;48.29
67842;BME280;54642;59.126;37.876;2023-05-20T10:51:23;101328.38;;;16.88;48.69
67842;BME280;54642;59.126;37.876;2023-05-20T10:53:54;101321.31;;;16.96;48.24
67842;BME280;54642;59.126;37.876;2023-05-20T10:56:22;101326.47;;;17.02;47.68
67842;BME280;54642;59.126;37.876;2023-05-20T10:58:49;101305.59;;;16.98;47.12
67842;BME280;54642;59.126;37.876;2023-05-20T11:01:16;101315.72;;;17.27;47.58
67842;BME280;54642;59.126;37.876;2023-05-20T11:03:48;101307.41;;;17.62;46.67
67842;BME280;54642;59.126;37.876;2023-05-20T11:06:16;101307.75;;;18.00;46.55
67842;BME280;54642;59.126;37.876;2023-05-20T11:08:43;101304.66;;;18.26;46.23
67842;BME280;54642;59.126;37.876;2023-05-20T11:11:10;101299.59;;;18.17;45.63
67842;BME280;54642;59.126;37.876;2023-05-20T11:13:37;101308.84;;;17.83;46.33
67842;BME280;54642;59.126;37.876;2023-05-20T11:16:04;101316.19;;;17.58;46.68
67842;BME280;54642;59.126;37.876;2023-05-20T11:18:30;101325.88;;;17.53;47.03
67842;BME280;54642;59.126;37.876;2023-05-20T11:21:00;101326.41;;;17.78;46.92
67842;BME280;54642;59.126;37.876;2023-05-20T11:23:27;101325.34;;;17.91;46.20
67842;BME280;54642;59.126;37.876;2023-05-20T11:25:55;101311.72;;;17.65;45.95
67842;BME280;54642;59.126;37.876;2023-05-20T11:28:22;101319.84;;;17.46;46.02
67842;BME280;54642;59.126;37.876;2023-05-20T11:30:50;101323.44;;;17.36;46.50
67842;BME280;54642;59.126;37.876;2023-05-20T11:33:17;101307.88;;;17.25;46.54
67842;BME280;54642;59.126;37.876;2023-05-20T11:35:46;101281.97;;;17.01;46.75
67842;BME280;54642;59.126;37.876;2023-05-20T11:38:12;101314.06;;;17.20;46.48
67842;BME280;54642;59.126;37.876;2023-05-20T11:40:43;101303.69;;;17.10;46.92
67842;BME280;54642;59.126;37.876;2023-05-20T11:43:11;101286.34;;;17.00;47.78
67842;BME280;54642;59.126;37.876;2023-05-20T11:45:45;101310.66;;;17.11;47.75
67842;BME280;54642;59.126;37.876;2023-05-20T11:48:11;101311.47;;;17.18;47.96
67842;BME280;54642;59.126;37.876;2023-05-20T11:50:45;101306.25;;;17.15;47.53
67842;BME280;54642;59.126;37.876;2023-05-20T11:53:18;101314.03;;;17.23;47.17
67842;BME280;54642;59.126;37.876;2023-05-20T11:55:54;101318.38;;;17.22;47.06
67842;BME280;54642;59.126;37.876;2023-05-20T11:58:22;101314.97;;;17.17;47.23
67842;BME280;54642;59.126;37.876;2023-05-20T12:00:48;101298.47;;;17.10;47.24
67842;BME280;54642;59.126;37.876;2023-05-20T12:03:14;101295.81;;;17.13;47.01
67842;BME280;54642;59.126;37.876;2023-05-20T12:05:41;101303.63;;;17.17;47.08
67842;BME280;54642;59.126;37.876;2023-05-20T12:08:07;101291.41;;;17.15;47.67
67842;BME280;54642;59.126;37.876;2023-05-20T12:10:34;101307.06;;;17.20;47.31
67842;BME280;54642;59.126;37.876;2023-05-20T12:13:02;101303.63;;;17.15;47.09
67842;BME280;54642;59.126;37.876;2023-05-20T12:15:28;101281.97;;;17.02;47.33
67842;BME280;54642;59.126;37.876;2023-05-20T12:17:54;101293.25;;;17.07;47.26
67842;BME280;54642;59.126;37.876;2023-05-20T12:20:22;101300.13;;;17.18;47.62
67842;BME280;54642;59.126;37.876;2023-05-20T12:22:48;101289.66;;;17.14;47.21
67842;BME280;54642;59.126;37.876;2023-05-20T12:25:16;101288.03;;;17.06;47.47
67842;BME280;54642;59.126;37.876;2023-05-20T12:27:44;101267.16;;;17.01;47.34
67842;BME280;54642;59.126;37.876;2023-05-20T12:30:17;101286.13;;;17.19;47.36
67842;BME280;54642;59.126;37.876;2023-05-20T12:32:45;101269.44;;;17.26;47.25
67842;BME280;54642;59.126;37.876;2023-05-20T12:35:11;101285.78;;;17.46;47.42
67842;BME280;54642;59.126;37.876;2023-05-20T12:37:41;101243.97;;;17.37;47.04
67842;BME280;54642;59.126;37.876;2023-05-20T12:40:08;101264.69;;;17.52;46.79
67842;BME280;54642;59.126;37.876;2023-05-20T12:42:39;101264.91;;;17.40;46.65
67842;BME280;54642;59.126;37.876;2023-05-20T12:45:06;101264.03;;;17.38;46.78
67842;BME280;54642;59.126;37.876;2023-05-20T12:47:32;101258.84;;;17.35;47.40
67842;BME280;54642;59.126;37.876;2023-05-20T12:49:59;101265.00;;;17.31;47.17
67842;BME280;54642;59.126;37.876;2023-05-20T12:52:25;101273.91;;;17.21;47.20